PWSweather.com
Personal Weather Stations
Station Observations
CAMPIGIANO
Campi Bisenzio, FirenzeIT

Campi BisenzioFirenzeIT

Lat: 43.8175012, Lon: 11.1391085

Elevation: 106

Station Type: LaCrosse WS2350

Latest ConditionsUpdated 12:45:21 PM GMT+01:01 Wednesday, Jul 23, 2014
Currently Today's Max Today's Min Today's Average
Temperature 85.7°F29.8°C 85.7°F29.8°C 70.7°F21.5°C 76.4°F24.7°C
Dew Point 65.5°F18.6°C 69.0°F20.6°C 63.5°F17.5°C 65.8°F18.8°C
Winds 1.7 mph NE2.7 kmh NE 9.8 mph NE15.8 kmh NE - 0.5 mph 0.8 kmh
Wind Gusts 1.8 mph2.9 kmh 9.8 mph15.8 kmh - -
Humidity 51% 83% 51% 71%
Pressure 29.78 in1008.5 mb 29.78 in1008.5 mb 29.75 in1007.5 mb -
Hour Temp Dew Point Humidity Winds Wind Gusts Pressure Precip Precip Rate Daily Precip Total
12:45 PM 85.7°F29.8°C 65.5°F18.6°C 51% 1.7 mph NE2.7 kmh NE 1.8 mph2.9 kmh 29.78 in1008.5 mb 0.00 in0.0 mm 0.00 in/hr0.0 mm/hr 0.00 in0.0 mm
12:30 PM 84.7°F29.3°C 65.2°F18.4°C 52% 2.3 mph NNW3.7 kmh NNW -- 29.77 in1008.1 mb 0.00 in0.0 mm 0.00 in/hr0.0 mm/hr 0.00 in0.0 mm
12:15 PM 84.7°F29.3°C 65.2°F18.4°C 52% 9.8 mph NE15.8 kmh NE 9.8 mph15.8 kmh 29.77 in1008.1 mb 0.00 in0.0 mm 0.00 in/hr0.0 mm/hr 0.00 in0.0 mm
12:00 PM 84.2°F29.0°C 65.2°F18.4°C 53% 2.5 mph NE4.0 kmh NE 4.0 mph6.4 kmh 29.77 in1008.1 mb 0.00 in0.0 mm 0.00 in/hr0.0 mm/hr 0.00 in0.0 mm
11:45 AM 84.7°F29.3°C 65.7°F18.7°C 53% 0.1 mph NNE0.2 kmh NNE 1.8 mph2.9 kmh 29.77 in1008.1 mb 0.00 in0.0 mm 0.00 in/hr0.0 mm/hr 0.00 in0.0 mm
11:30 AM 82.4°F28.0°C 63.5°F17.5°C 53% 1.5 mph NE2.4 kmh NE 1.8 mph2.9 kmh 29.77 in1008.1 mb 0.00 in0.0 mm 0.00 in/hr0.0 mm/hr 0.00 in0.0 mm
11:15 AM 83.3°F28.5°C 64.4°F18.0°C 53% Calm Calm -- 29.77 in1008.1 mb 0.00 in0.0 mm 0.00 in/hr0.0 mm/hr 0.00 in0.0 mm
11:00 AM 83.8°F28.8°C 64.3°F17.9°C 52% 0.5 mph NNE0.8 kmh NNE -- 29.77 in1008.1 mb 0.00 in0.0 mm 0.00 in/hr0.0 mm/hr 0.00 in0.0 mm
10:45 AM 82.8°F28.2°C 63.9°F17.7°C 53% 1.8 mph N2.9 kmh N 1.8 mph2.9 kmh 29.77 in1008.1 mb 0.00 in0.0 mm 0.00 in/hr0.0 mm/hr 0.00 in0.0 mm
10:30 AM 83.5°F28.6°C 64.5°F18.1°C 53% 0.4 mph SSW0.6 kmh SSW 0.7 mph1.1 kmh 29.77 in1008.1 mb 0.00 in0.0 mm 0.00 in/hr0.0 mm/hr 0.00 in0.0 mm
10:15 AM 84.0°F28.9°C 65.1°F18.4°C 53% 1.3 mph ENE2.1 kmh ENE 1.3 mph2.1 kmh 29.77 in1008.1 mb 0.00 in0.0 mm 0.00 in/hr0.0 mm/hr 0.00 in0.0 mm
10:00 AM 84.9°F29.4°C 67.4°F19.7°C 56% 0.5 mph NE0.8 kmh NE 0.9 mph1.4 kmh 29.77 in1008.1 mb 0.00 in0.0 mm 0.00 in/hr0.0 mm/hr 0.00 in0.0 mm
09:45 AM 84.4°F29.1°C 68.0°F20.0°C 58% Calm Calm -- 29.76 in1007.8 mb 0.00 in0.0 mm 0.00 in/hr0.0 mm/hr 0.00 in0.0 mm
09:30 AM 85.3°F29.6°C 68.8°F20.4°C 58% 0.7 mph NNE1.1 kmh NNE 0.9 mph1.4 kmh 29.76 in1007.8 mb 0.00 in0.0 mm 0.00 in/hr0.0 mm/hr 0.00 in0.0 mm
09:15 AM 84.2°F29.0°C 68.3°F20.2°C 59% Calm Calm -- 29.76 in1007.8 mb 0.00 in0.0 mm 0.00 in/hr0.0 mm/hr 0.00 in0.0 mm
09:00 AM 83.9°F28.8°C 69.0°F20.6°C 61% Calm Calm -- 29.77 in1008.1 mb 0.00 in0.0 mm 0.00 in/hr0.0 mm/hr 0.00 in0.0 mm
08:45 AM 81.7°F27.6°C 67.4°F19.7°C 62% Calm Calm -- 29.77 in1008.1 mb 0.00 in0.0 mm 0.00 in/hr0.0 mm/hr 0.00 in0.0 mm
08:30 AM 82.2°F27.9°C 67.4°F19.7°C 61% Calm Calm -- 29.77 in1008.1 mb 0.00 in0.0 mm 0.00 in/hr0.0 mm/hr 0.00 in0.0 mm
08:15 AM 78.4°F25.8°C 66.1°F18.9°C 66% Calm Calm -- 29.77 in1008.1 mb 0.00 in0.0 mm 0.00 in/hr0.0 mm/hr 0.00 in0.0 mm
08:00 AM 77.7°F25.4°C 66.7°F19.3°C 69% 1.4 mph NNE2.3 kmh NNE -- 29.77 in1008.1 mb 0.00 in0.0 mm 0.00 in/hr0.0 mm/hr 0.00 in0.0 mm
07:45 AM 78.8°F26.0°C 66.9°F19.4°C 67% Calm Calm -- 29.76 in1007.8 mb 0.00 in0.0 mm 0.00 in/hr0.0 mm/hr 0.00 in0.0 mm
07:30 AM 78.3°F25.7°C 68.5°F20.3°C 72% Calm Calm -- 29.76 in1007.8 mb 0.00 in0.0 mm 0.00 in/hr0.0 mm/hr 0.00 in0.0 mm
07:15 AM 75.7°F24.3°C 67.2°F19.6°C 75% Calm Calm -- 29.76 in1007.8 mb 0.00 in0.0 mm 0.00 in/hr0.0 mm/hr 0.00 in0.0 mm
07:00 AM 75.0°F23.9°C 67.7°F19.8°C 78% Calm Calm -- 29.76 in1007.8 mb 0.00 in0.0 mm 0.00 in/hr0.0 mm/hr 0.00 in0.0 mm
06:45 AM 72.1°F22.3°C 66.3°F19.1°C 82% Calm Calm -- 29.77 in1008.1 mb 0.00 in0.0 mm 0.00 in/hr0.0 mm/hr 0.00 in0.0 mm
06:30 AM 72.0°F22.2°C 66.2°F19.0°C 82% Calm Calm -- 29.76 in1007.8 mb 0.00 in0.0 mm 0.00 in/hr0.0 mm/hr 0.00 in0.0 mm
06:15 AM 71.8°F22.1°C 66.0°F18.9°C 82% Calm Calm -- 29.76 in1007.8 mb 0.00 in0.0 mm 0.00 in/hr0.0 mm/hr 0.00 in0.0 mm
06:00 AM 71.4°F21.9°C 66.0°F18.9°C 83% Calm Calm -- 29.76 in1007.8 mb 0.00 in0.0 mm 0.00 in/hr0.0 mm/hr 0.00 in0.0 mm
05:45 AM 70.9°F21.6°C 65.5°F18.6°C 83% Calm Calm -- 29.76 in1007.8 mb 0.00 in0.0 mm 0.00 in/hr0.0 mm/hr 0.00 in0.0 mm
05:30 AM 70.7°F21.5°C 65.3°F18.5°C 83% Calm Calm -- 29.76 in1007.8 mb 0.00 in0.0 mm 0.00 in/hr0.0 mm/hr 0.00 in0.0 mm
05:15 AM 70.9°F21.6°C 65.5°F18.6°C 83% Calm Calm -- 29.76 in1007.8 mb 0.00 in0.0 mm 0.00 in/hr0.0 mm/hr 0.00 in0.0 mm
05:00 AM 70.9°F21.6°C 65.5°F18.6°C 83% Calm Calm -- 29.76 in1007.8 mb 0.00 in0.0 mm 0.00 in/hr0.0 mm/hr 0.00 in0.0 mm
04:45 AM 70.9°F21.6°C 65.5°F18.6°C 83% Calm Calm -- 29.76 in1007.8 mb 0.00 in0.0 mm 0.00 in/hr0.0 mm/hr 0.00 in0.0 mm
04:30 AM 70.7°F21.5°C 65.3°F18.5°C 83% Calm Calm -- 29.75 in1007.5 mb 0.00 in0.0 mm 0.00 in/hr0.0 mm/hr 0.00 in0.0 mm
04:15 AM 70.9°F21.6°C 65.1°F18.4°C 82% Calm Calm -- 29.75 in1007.5 mb 0.00 in0.0 mm 0.00 in/hr0.0 mm/hr 0.00 in0.0 mm
04:00 AM 70.9°F21.6°C 65.1°F18.4°C 82% Calm Calm -- 29.75 in1007.5 mb 0.00 in0.0 mm 0.00 in/hr0.0 mm/hr 0.00 in0.0 mm
03:45 AM 71.1°F21.7°C 65.3°F18.5°C 82% Calm Calm -- 29.75 in1007.5 mb 0.00 in0.0 mm 0.00 in/hr0.0 mm/hr 0.00 in0.0 mm
03:30 AM 70.9°F21.6°C 65.1°F18.4°C 82% Calm Calm -- 29.75 in1007.5 mb 0.00 in0.0 mm 0.00 in/hr0.0 mm/hr 0.00 in0.0 mm
03:15 AM 71.1°F21.7°C 64.9°F18.3°C 81% Calm Calm -- 29.75 in1007.5 mb 0.00 in0.0 mm 0.00 in/hr0.0 mm/hr 0.00 in0.0 mm
03:00 AM 70.9°F21.6°C 65.1°F18.4°C 82% Calm Calm -- 29.76 in1007.8 mb 0.00 in0.0 mm 0.00 in/hr0.0 mm/hr 0.00 in0.0 mm
02:45 AM 70.9°F21.6°C 65.1°F18.4°C 82% Calm Calm -- 29.76 in1007.8 mb 0.00 in0.0 mm 0.00 in/hr0.0 mm/hr 0.00 in0.0 mm
02:30 AM 70.9°F21.6°C 65.1°F18.4°C 82% Calm Calm -- 29.75 in1007.5 mb 0.00 in0.0 mm 0.00 in/hr0.0 mm/hr 0.00 in0.0 mm
02:15 AM 70.9°F21.6°C 64.8°F18.2°C 81% Calm Calm -- 29.75 in1007.5 mb 0.00 in0.0 mm 0.00 in/hr0.0 mm/hr 0.00 in0.0 mm
02:00 AM 71.1°F21.7°C 65.0°F18.3°C 81% Calm Calm -- 29.75 in1007.5 mb 0.00 in0.0 mm 0.00 in/hr0.0 mm/hr 0.00 in0.0 mm
01:45 AM 71.4°F21.9°C 64.9°F18.3°C 80% Calm Calm -- 29.75 in1007.5 mb 0.00 in0.0 mm 0.00 in/hr0.0 mm/hr 0.00 in0.0 mm
01:30 AM 71.4°F21.9°C 64.9°F18.3°C 80% Calm Calm -- 29.75 in1007.5 mb 0.00 in0.0 mm 0.00 in/hr0.0 mm/hr 0.00 in0.0 mm
01:15 AM 71.6°F22.0°C 65.1°F18.4°C 80% Calm Calm -- 29.75 in1007.5 mb 0.00 in0.0 mm 0.00 in/hr0.0 mm/hr 0.00 in0.0 mm
01:00 AM 72.0°F22.2°C 65.1°F18.4°C 79% Calm Calm -- 29.75 in1007.5 mb 0.00 in0.0 mm 0.00 in/hr0.0 mm/hr 0.00 in0.0 mm
12:45 AM 72.1°F22.3°C 65.3°F18.5°C 79% Calm Calm -- 29.76 in1007.8 mb 0.00 in0.0 mm 0.00 in/hr0.0 mm/hr 0.00 in0.0 mm
12:30 AM 72.5°F22.5°C 64.9°F18.3°C 77% Calm Calm -- 29.76 in1007.8 mb 0.00 in0.0 mm 0.00 in/hr0.0 mm/hr 0.00 in0.0 mm
12:15 AM 72.9°F22.7°C 65.2°F18.4°C 77% Calm Calm -- 29.76 in1007.8 mb 0.00 in0.0 mm 0.00 in/hr0.0 mm/hr 0.00 in0.0 mm
12:00 AM 73.0°F22.8°C 64.6°F18.1°C 75% Calm Calm -- 29.76 in1007.8 mb 0.00 in0.0 mm 0.00 in/hr0.0 mm/hr 0.00 in0.0 mm